Latest Weather Observations for Rhyll

IDV60801

Issued at 7:32 pm EST Saturday 27 May 2017 (issued every 30 minutes, with the page automatically refreshed every 10 minutes)

About weather observations | Map of weather stations | Latest weather observations for VIC | Other Formats
Station Details ID: 086373 Name: RHYLL Lat: -38.46 Lon: 145.31 Height: 13.4 m
Data from the previous 72 hours. | See also: Recent months at Rhyll
Date/Time
EST
Temp
°C
App
Temp
°C
Dew
Point
°C
Rel
Hum
%
Delta-T
°C
Wind Press
QNH
hPa
Press
MSL
hPa
Rain since
9am
mm
Dir  Spd
km/h
Gust
km/h
Spd
kts
Gust
kts
27/07:30pm 15.3 10.0 9.7 69 2.9 N 28 33 15 18 1009.9 1009.9 0.0
27/07:00pm 15.2 11.6 9.8 70 2.8 N 19 26 10 14 1009.9 1009.9 0.0
27/06:30pm 15.5 11.8 9.6 68 3.1 N 19 30 10 16 1010.0 1010.0 0.0
27/06:00pm 15.7 10.8 9.8 68 3.1 N 26 35 14 19 1010.2 1010.2 0.0
27/05:30pm 15.8 9.1 9.7 67 3.2 N 35 43 19 23 1010.2 1010.2 0.0
27/05:00pm 15.9 9.3 10.0 68 3.1 N 35 41 19 22 1010.3 1010.3 0.0
27/04:30pm 16.1 10.4 9.8 66 3.3 N 30 39 16 21 1010.6 1010.6 0.0
27/04:00pm 16.3 10.6 9.9 66 3.4 N 30 39 16 21 1010.9 1010.9 0.0
27/03:30pm 16.7 9.5 9.1 61 3.9 N 37 50 20 27 1011.2 1011.2 0.0
27/03:00pm 16.6 10.5 9.8 64 3.6 NNW 32 43 17 23 1011.7 1011.7 0.0
27/02:30pm 16.8 10.1 9.5 62 3.8 NNW 35 50 19 27 1011.8 1011.8 0.0
27/02:00pm 16.7 11.4 9.9 64 3.6 NNW 28 35 15 19 1012.4 1012.4 0.0
27/01:30pm 16.8 9.8 10.0 64 3.6 NNW 37 46 20 25 1012.8 1012.8 0.0
27/01:00pm 16.8 10.1 9.5 62 3.8 NNW 35 44 19 24 1013.3 1013.3 0.0
27/12:30pm 16.5 10.2 9.7 64 3.6 N 33 41 18 22 1013.7 1013.7 0.0
27/12:00pm 16.1 10.5 10.2 68 3.1 NNW 30 37 16 20 1014.6 1014.6 0.0
27/11:30am 15.9 9.9 10.2 69 3.0 NNW 32 39 17 21 1015.3 1015.3 0.0
27/11:00am 15.7 9.7 10.0 69 3.0 NNW 32 41 17 22 1015.8 1015.8 0.0
27/10:30am 15.3 9.8 10.5 73 2.5 NNW 30 37 16 20 1016.4 1016.4 0.0
27/10:00am 14.6 9.4 10.4 76 2.2 NNW 28 33 15 18 1016.7 1016.7 0.0
27/09:30am 14.1 9.0 10.5 79 1.9 N 28 33 15 18 1016.8 1016.8 0.0
27/09:00am 13.8 8.3 10.4 80 1.8 NNW 30 37 16 20 1017.1 1017.1 0.0
27/08:30am 13.4 9.1 10.6 83 1.5 NNW 24 28 13 15 1017.1 1017.1 0.0
27/08:00am 13.3 9.7 10.7 84 1.4 NNW 20 24 11 13 1017.1 1017.1 0.0
27/07:30am 13.0 9.0 10.4 84 1.3 NNW 22 28 12 15 1017.0 1017.0 0.0
27/07:00am 12.7 8.2 10.2 85 1.3 N 24 30 13 16 1016.8 1016.8 0.0
27/06:30am 12.3 7.8 9.9 85 1.2 NNW 24 30 13 16 1016.9 1016.9 0.0
27/06:00am 12.4 8.3 10.1 86 1.2 NNW 22 30 12 16 1016.7 1016.7 0.0
27/05:30am 12.2 8.4 9.9 86 1.2 N 20 24 11 13 1016.8 1016.8 0.0
27/05:00am 11.9 8.7 9.8 87 1.1 N 17 24 9 13 1016.9 1016.9 0.0
27/04:30am 11.5 9.3 9.4 87 1.1 N 11 17 6 9 1017.1 1017.1 0.0
27/04:00am 11.8 10.1 9.7 87 1.1 N 9 19 5 10 1017.1 1017.1 0.0
27/03:30am 11.4 10.0 9.5 88 1.0 NNE 7 13 4 7 1017.6 1017.6 0.0
27/03:00am 11.9 10.5 9.6 86 1.2 NNE 7 13 4 7 1017.9 1017.9 0.0
27/02:30am 12.2 9.0 9.9 86 1.2 N 17 22 9 12 1018.0 1018.0 0.0
27/02:00am 12.1 9.2 9.8 86 1.2 N 15 22 8 12 1018.2 1018.2 0.0
27/01:30am 11.9 9.8 9.6 86 1.2 N 11 19 6 10 1018.5 1018.5 0.0
27/01:00am 12.1 9.6 9.7 85 1.2 N 13 19 7 10 1018.7 1018.7 0.0
27/12:30am 12.3 10.2 9.7 84 1.3 N 11 19 6 10 1019.1 1019.1 0.0
27/12:00am 12.3 10.9 9.7 84 1.3 NNE 7 13 4 7 1019.2 1019.2 0.0
 
Date/Time
EST
Temp
°C
App
Temp
°C
Dew
Point
°C
Rel
Hum
%
Delta-T
°C
Wind Press
QNH
hPa
Press
MSL
hPa
Rain since
9am
mm
Dir  Spd
km/h
Gust
km/h
Spd
kts
Gust
kts
26/11:30pm 12.4 11.0 9.6 83 1.4 NE 7 13 4 7 1019.2 1019.2 0.0
26/11:00pm 12.2 10.8 9.4 83 1.4 N 7 13 4 7 1019.3 1019.3 0.0
26/10:30pm 11.5 9.9 8.2 80 1.6 N 6 7 3 4 1019.7 1019.7 0.0
26/10:00pm 11.3 9.5 8.0 80 1.6 NE 7 9 4 5 1019.7 1019.7 0.0
26/09:30pm 10.5 9.2 7.6 82 1.4 ENE 4 6 2 3 1019.7 1019.7 0.0
26/09:00pm 11.4 9.8 8.1 80 1.6 NE 6 7 3 4 1019.9 1019.9 0.0
26/08:30pm 11.6 9.9 8.3 80 1.6 NE 7 9 4 5 1020.0 1020.0 0.0
26/08:00pm 12.1 10.0 8.4 78 1.8 NE 9 11 5 6 1019.9 1019.9 0.0
26/07:30pm 11.7 10.2 9.1 84 1.3 NE 7 11 4 6 1019.9 1019.9 0.0
26/07:00pm 11.8 10.4 8.8 82 1.5 ENE 6 9 3 5 1019.8 1019.8 0.0
26/06:30pm 11.7 11.2 8.0 78 1.8 CALM 0 0 0 0 1019.8 1019.8 0.0
26/06:00pm 12.3 11.7 7.6 73 2.3 CALM 0 0 0 0 1019.8 1019.8 0.0
26/05:30pm 12.0 11.3 7.1 72 2.4 CALM 0 0 0 0 1019.8 1019.8 0.0
26/05:00pm 12.6 11.7 6.0 64 3.1 CALM 0 0 0 0 1019.7 1019.7 0.0
26/04:30pm 13.7 12.8 6.1 60 3.6 CALM 0 0 0 0 1019.9 1019.9 0.0
26/04:00pm 14.7 13.1 6.5 58 4.0 NNW 4 7 2 4 1020.0 1020.0 0.0
26/03:30pm 15.1 13.3 5.3 52 4.6 NNW 4 6 2 3 1020.1 1020.1 0.0
26/03:00pm 15.7 14.0 5.9 52 4.7 N 4 7 2 4 1020.2 1020.2 0.0
26/02:30pm 16.9 15.7 6.4 50 5.2 NNE 2 4 1 2 1020.3 1020.3 0.0
26/02:00pm 17.0 15.9 7.1 52 4.9 NNE 2 4 1 2 1020.5 1020.5 0.0
26/01:30pm 16.6 15.1 7.0 53 4.8 N 4 6 2 3 1020.6 1020.6 0.0
26/01:00pm 15.8 13.7 6.5 54 4.5 NNW 7 11 4 6 1021.0 1021.0 0.0
26/12:30pm 15.6 13.2 6.9 56 4.3 NNW 9 13 5 7 1021.3 1021.3 0.0
26/12:00pm 15.8 13.8 7.3 57 4.2 NW 7 13 4 7 1021.8 1021.8 0.0
26/11:30am 15.7 14.1 8.0 60 3.9 NW 6 13 3 7 1022.3 1022.3 0.0
26/11:00am 15.4 14.2 9.5 68 3.0 NW 6 11 3 6 1022.5 1022.5 0.0
26/10:30am 15.3 14.4 10.7 74 2.4 WNW 6 9 3 5 1022.7 1022.7 0.0
26/10:00am 13.4 12.9 10.6 83 1.5 WNW 4 9 2 5 1022.7 1022.7 0.0
26/09:30am 13.0 12.4 10.4 84 1.3 WNW 4 7 2 4 1022.6 1022.6 0.0
26/09:00am 13.3 12.7 10.3 82 1.5 WNW 4 7 2 4 1022.5 1022.5 5.6
26/08:30am 12.2 11.1 8.3 77 1.9 NW 4 7 2 4 1022.2 1022.2 5.6
26/08:00am 10.2 8.1 6.0 75 1.9 WNW 6 9 3 5 1022.0 1022.0 5.6
26/07:30am 12.0 9.4 5.9 66 2.9 WSW 9 13 5 7 1021.7 1021.7 5.6
26/07:00am 11.9 9.3 6.0 67 2.8 WSW 9 13 5 7 1021.4 1021.4 5.6
26/06:30am 11.6 9.3 7.3 75 2.1 W 9 11 5 6 1021.1 1021.1 5.6
26/06:00am 11.8 10.3 8.5 80 1.6 W 6 9 3 5 1020.7 1020.7 5.6
26/05:30am 12.3 10.8 9.3 82 1.5 WSW 7 11 4 6 1020.5 1020.5 5.6
26/05:00am 12.0 10.7 9.9 87 1.1 W 7 9 4 5 1020.0 1020.0 5.6
26/04:30am 12.0 11.0 10.4 90 0.8 WNW 6 7 3 4 1019.7 1019.7 5.6
26/04:00am 12.0 11.5 10.7 92 0.7 WNW 4 9 2 5 1019.6 1019.6 5.6
26/03:30am 11.9 11.0 10.5 91 0.7 NW 6 7 3 4 1019.5 1019.5 5.6
26/03:00am 12.4 11.3 10.8 90 0.8 SW 7 13 4 7 1019.2 1019.2 5.6
26/02:30am 12.9 12.3 11.6 92 0.7 W 6 9 3 5 1019.4 1019.4 5.4
26/02:00am 12.9 12.3 11.6 92 0.7 W 6 13 3 7 1019.3 1019.3 5.0
26/01:30am 12.7 11.8 11.4 92 0.7 WNW 7 11 4 6 1019.1 1019.1 4.8
26/01:00am 12.6 11.7 11.3 92 0.7 W 7 15 4 8 1019.1 1019.1 4.8
26/12:30am 12.8 11.9 11.5 92 0.7 W 7 11 4 6 1019.1 1019.1 4.8
26/12:00am 12.8 12.1 11.5 92 0.7 WNW 6 9 3 5 1019.0 1019.0 4.4
 
Date/Time
EST
Temp
°C
App
Temp
°C
Dew
Point
°C
Rel
Hum
%
Delta-T
°C
Wind Press
QNH
hPa
Press
MSL
hPa
Rain since
9am
mm
Dir  Spd
km/h
Gust
km/h
Spd
kts
Gust
kts
25/11:30pm 12.8 12.1 11.4 91 0.7 WNW 6 9 3 5 1019.0 1019.0 3.6
25/11:00pm 13.3 12.1 11.5 89 1.0 WSW 9 19 5 10 1018.9 1018.9 2.8
25/10:30pm 14.7 14.1 11.8 83 1.6 WNW 6 17 3 9 1018.5 1018.5 0.4
25/10:00pm 15.1 13.4 11.3 78 2.0 NW 11 19 6 10 1018.4 1018.4 0.0
25/09:30pm 14.8 13.2 11.4 80 1.8 NW 11 19 6 10 1018.3 1018.3 0.0
25/09:00pm 14.6 13.0 11.4 81 1.7 NW 11 22 6 12 1018.2 1018.2 0.0
25/08:30pm 14.9 12.1 11.3 79 1.9 NNW 17 24 9 13 1018.0 1018.0 0.0
25/08:00pm 15.4 13.2 10.8 74 2.4 NW 13 24 7 13 1017.9 1017.9 0.0
25/07:30pm 15.6 13.4 10.8 73 2.5 NW 13 22 7 12 1017.9 1017.9 0.0
25/07:00pm 15.5 14.0 10.5 72 2.6 NW 9 19 5 10 1018.0 1018.0 0.0
25/06:30pm 15.5 13.7 10.7 73 2.5 NW 11 20 6 11 1017.9 1017.9 0.0
25/06:00pm 15.6 13.4 10.8 73 2.5 NW 13 22 7 12 1017.6 1017.6 0.0
25/05:30pm 15.4 11.8 10.6 73 2.5 NNW 20 33 11 18 1017.3 1017.3 0.0
25/05:00pm 15.4 12.7 10.4 72 2.6 NNW 15 22 8 12 1017.2 1017.2 0.0
25/04:30pm 15.4 10.5 10.0 70 2.8 NNW 26 32 14 17 1017.2 1017.2 0.0
25/04:00pm 15.4 10.8 9.7 69 3.0 N 24 28 13 15 1017.2 1017.2 0.0
25/03:30pm 15.4 10.8 9.5 68 3.1 NNW 24 35 13 19 1017.2 1017.2 0.0
25/03:00pm 15.8 10.7 9.2 65 3.4 NNW 26 33 14 18 1017.4 1017.4 0.0
25/02:30pm 15.6 10.0 8.6 63 3.6 NNW 28 33 15 18 1017.6 1017.6 0.0
25/02:00pm 15.5 9.5 8.7 64 3.5 NNW 30 37 16 20 1017.7 1017.7 0.0
25/01:30pm 15.2 9.7 9.1 67 3.1 NNW 28 39 15 21 1017.9 1017.9 0.0
25/01:00pm 15.9 10.8 9.1 64 3.5 NNW 26 33 14 18 1018.3 1018.3 0.0
25/12:30pm 15.8 10.6 9.0 64 3.5 NNW 26 39 14 21 1018.7 1018.7 0.0
25/12:00pm 15.8 11.0 9.0 64 3.5 NNW 24 37 13 20 1019.0 1019.0 0.0
25/11:30am 14.7 10.2 8.6 67 3.1 NNW 22 32 12 17 1019.6 1019.6 0.0
25/11:00am 14.3 10.1 7.6 64 3.3 NNW 19 28 10 15 1020.1 1020.1 0.0
25/10:30am 14.4 11.8 7.7 64 3.3 NW 11 24 6 13 1020.0 1020.0 0.0
25/10:00am 14.4 12.4 8.8 69 2.8 NW 9 20 5 11 1020.0 1020.0 0.0
25/09:30am 14.2 12.3 7.5 64 3.3 NW 7 13 4 7 1020.1 1020.1 0.0
25/09:00am 14.1 12.2 7.6 65 3.2 NW 7 19 4 10 1019.9 1019.9 0.0
25/08:30am 14.0 12.2 7.3 64 3.3 WNW 6 13 3 7 1019.9 1019.9 0.0
25/08:00am 13.8 11.9 7.6 66 3.0 WNW 7 17 4 9 1019.7 1019.7 0.0
25/07:30am 13.7 11.8 7.7 67 3.0 NW 7 17 4 9 1019.7 1019.7 0.0
25/07:00am 13.6 11.1 8.0 69 2.8 NW 11 19 6 10 1019.5 1019.5 0.0
25/06:30am 13.7 11.2 8.1 69 2.8 NW 11 20 6 11 1019.4 1019.4 0.0
25/06:00am 13.6 10.7 8.0 69 2.8 NW 13 24 7 13 1019.2 1019.2 0.0
25/05:30am 13.4 11.0 8.7 73 2.4 NW 11 19 6 10 1019.0 1019.0 0.0
25/05:00am 13.4 11.5 8.9 74 2.3 NW 9 20 5 11 1019.0 1019.0 0.0
25/04:30am 13.4 12.0 9.6 78 1.9 NW 7 17 4 9 1018.9 1018.9 0.0
25/04:00am 13.3 12.0 10.1 81 1.6 WNW 7 19 4 10 1018.8 1018.8 0.0
25/03:30am 13.2 12.2 10.2 82 1.6 WNW 6 19 3 10 1018.7 1018.7 0.0
25/03:00am 13.2 11.7 10.4 83 1.5 WNW 9 19 5 10 1018.8 1018.8 0.0
25/02:30am 12.8 11.7 10.0 83 1.4 WNW 6 13 3 7 1018.9 1018.9 0.0
25/02:00am 12.8 11.5 10.0 83 1.4 WNW 7 13 4 7 1019.0 1019.0 0.0
25/01:30am 13.0 11.7 10.0 82 1.5 WNW 7 19 4 10 1019.1 1019.1 0.0
25/01:00am 12.9 11.6 9.9 82 1.5 WNW 7 13 4 7 1019.2 1019.2 0.0
25/12:30am 12.9 11.6 10.1 83 1.4 W 7 17 4 9 1019.3 1019.3 0.0
25/12:00am 12.6 11.5 10.0 84 1.3 WNW 6 11 3 6 1019.2 1019.2 0.0
 
Date/Time
EST
Temp
°C
App
Temp
°C
Dew
Point
°C
Rel
Hum
%
Delta-T
°C
Wind Press
QNH
hPa
Press
MSL
hPa
Rain since
9am
mm
Dir  Spd
km/h
Gust
km/h
Spd
kts
Gust
kts
24/11:30pm 12.5 11.2 9.9 84 1.3 WNW 7 15 4 8 1019.3 1019.3 0.0
24/11:00pm 12.7 11.0 9.9 83 1.4 NW 9 17 5 9 1019.3 1019.3 0.0
24/10:30pm 13.0 11.7 9.8 81 1.6 WNW 7 13 4 7 1019.4 1019.4 0.0
24/10:00pm 13.0 11.2 9.3 78 1.9 W 9 15 5 8 1019.3 1019.3 0.0
24/09:30pm 13.4 11.6 9.3 76 2.1 W 9 19 5 10 1019.3 1019.3 0.0
24/09:00pm 13.4 11.1 8.9 74 2.3 W 11 20 6 11 1019.0 1019.0 0.0
24/08:30pm 13.7 11.7 8.7 72 2.5 W 9 17 5 9 1018.9 1018.9 0.0
24/08:00pm 14.0 12.0 8.6 70 2.7 W 9 19 5 10 1018.8 1018.8 0.0

Other Formats:

Comma delimited format used in spreadsheet applications
http://www.bom.gov.au/fwo/IDV60801/IDV60801.94892.axf

JavaScript Object Notation format (JSON) in row-major order
http://www.bom.gov.au/fwo/IDV60801/IDV60801.94892.json